Latest METARs, TAFs and NOTAMs for MMTO


---------------------------------------------------------------------------
	(OBSERVATIONS)
MMTO 220948Z 00000KT 5SM  SKC 04/00 A3036 RMK HZY=
MMTO 220848Z 00000KT 5SM  SKC 06/01 A3036  RMK SLP115 57003 902
    HZY=
MMTO 220747Z 31004KT 6SM  SKC 06/01 A3038 RMK HZY=
---------------------------------------------------------------------------
	(TERMINAL AREA FORECAST)
MMTO 221016Z 2212/2318 22005KT 6SM HZ SKC TX21/2221Z
    TN00/2212Z
    TEMPO 2212/2215 2SM HZ
    FM221800 03010KT 6SM HZ SKC
    FM230600 03005KT 6SM HZ SKC
    FM231800 23010KT P6SM SKC=
---------------------------------------------------------------------------
	(NOTAMS)


MMTO A0572/17 CHANGED NAME OF THE FOLLOWING REPORTING POINTS:
    LIMBO TO TAKUG NOGAL TO LENEG PUBLISHED IN CHART AD-MMTO-LL-1,
    AD-MMTO-LL-4, AD-MMTO-LL-7-RNAV/LL-8-RNAV PUBLISHED IN ANEX
    TO SUP 06/12 DATE 21-SEP-2012 MEXICO AIP. 27 JAN 03:46 2017
    UNTIL PERM. CREATED: 27 JAN 04:02 2017

MMTO A0609/17 RWY 15/33 CLSD. 1800/1900 ONLY DAYS TUE, 27 JAN
    19:24 2017 UNTIL 28 MAR 19:00 2017. CREATED: 27 JAN 19:27
    2017

MMTO A0895/17 RWY 15/33 CLSD. 22 FEB 04:00 2017 UNTIL 22 FEB
    11:00 2017. CREATED: 10 FEB 20:37 2017

---------------------------------------------------------------------------